sensor_id;sensor_type;location;lat;lon;timestamp;pressure;altitude;pressure_sealevel;temperature;humidity
63281;BME280;49406;51.044;3.766;2023-06-24T00:00:31;102547.90;;;16.44;94.30
63281;BME280;49406;51.044;3.766;2023-06-24T00:03:06;102545.55;;;16.39;94.68
63281;BME280;49406;51.044;3.766;2023-06-24T00:05:41;102546.20;;;16.33;95.02
63281;BME280;49406;51.044;3.766;2023-06-24T00:08:16;102544.00;;;16.28;95.96
63281;BME280;49406;51.044;3.766;2023-06-24T00:10:52;102543.27;;;16.25;96.34
63281;BME280;49406;51.044;3.766;2023-06-24T00:13:26;102539.50;;;16.18;96.49
63281;BME280;49406;51.044;3.766;2023-06-24T00:16:02;102536.41;;;16.12;97.21
63281;BME280;49406;51.044;3.766;2023-06-24T00:18:37;102535.79;;;16.05;97.56
63281;BME280;49406;51.044;3.766;2023-06-24T00:27:55;102547.64;;;16.06;98.33
63281;BME280;49406;51.044;3.766;2023-06-24T00:30:30;102547.91;;;16.00;99.12
63281;BME280;49406;51.044;3.766;2023-06-24T00:33:04;102551.04;;;15.96;99.46
63281;BME280;49406;51.044;3.766;2023-06-24T00:35:45;102548.21;;;15.96;99.96
63281;BME280;49406;51.044;3.766;2023-06-24T00:38:19;102541.68;;;15.96;99.83
63281;BME280;49406;51.044;3.766;2023-06-24T00:40:54;102538.77;;;15.90;99.99
63281;BME280;49406;51.044;3.766;2023-06-24T00:43:28;102539.56;;;15.82;100.00
63281;BME280;49406;51.044;3.766;2023-06-24T00:46:03;102536.48;;;15.77;100.00
63281;BME280;49406;51.044;3.766;2023-06-24T00:48:39;102539.92;;;15.70;100.00
63281;BME280;49406;51.044;3.766;2023-06-24T00:51:13;102540.40;;;15.66;100.00
63281;BME280;49406;51.044;3.766;2023-06-24T00:53:48;102541.44;;;15.65;100.00
63281;BME280;49406;51.044;3.766;2023-06-24T00:56:24;102544.02;;;15.61;100.00
63281;BME280;49406;51.044;3.766;2023-06-24T00:59:00;102543.71;;;15.55;100.00
63281;BME280;49406;51.044;3.766;2023-06-24T01:01:36;102541.38;;;15.51;100.00
63281;BME280;49406;51.044;3.766;2023-06-24T01:04:11;102544.83;;;15.58;100.00
63281;BME280;49406;51.044;3.766;2023-06-24T01:06:46;102541.62;;;15.56;100.00
63281;BME280;49406;51.044;3.766;2023-06-24T01:09:21;102537.44;;;15.59;100.00
63281;BME280;49406;51.044;3.766;2023-06-24T01:11:56;102540.85;;;15.61;100.00
63281;BME280;49406;51.044;3.766;2023-06-24T01:14:30;102544.08;;;15.64;100.00
63281;BME280;49406;51.044;3.766;2023-06-24T01:17:12;102542.97;;;15.62;100.00
63281;BME280;49406;51.044;3.766;2023-06-24T01:19:57;102539.16;;;15.57;100.00
63281;BME280;49406;51.044;3.766;2023-06-24T01:22:54;102540.71;;;15.54;100.00
63281;BME280;49406;51.044;3.766;2023-06-24T01:25:44;102536.14;;;15.54;100.00
63281;BME280;49406;51.044;3.766;2023-06-24T01:28:37;102532.04;;;15.51;100.00
63281;BME280;49406;51.044;3.766;2023-06-24T01:31:38;102527.73;;;15.46;100.00
63281;BME280;49406;51.044;3.766;2023-06-24T01:34:20;102523.27;;;15.43;100.00
63281;BME280;49406;51.044;3.766;2023-06-24T01:37:03;102526.23;;;15.52;100.00
63281;BME280;49406;51.044;3.766;2023-06-24T01:39:47;102521.16;;;15.55;100.00
63281;BME280;49406;51.044;3.766;2023-06-24T01:42:23;102522.20;;;15.54;100.00
63281;BME280;49406;51.044;3.766;2023-06-24T01:44:58;102520.80;;;15.55;100.00
63281;BME280;49406;51.044;3.766;2023-06-24T01:47:33;102525.04;;;15.55;100.00
63281;BME280;49406;51.044;3.766;2023-06-24T01:50:11;102530.51;;;15.56;100.00
63281;BME280;49406;51.044;3.766;2023-06-24T01:52:46;102530.58;;;15.59;100.00
63281;BME280;49406;51.044;3.766;2023-06-24T01:55:23;102527.61;;;15.61;100.00
63281;BME280;49406;51.044;3.766;2023-06-24T01:57:58;102527.60;;;15.72;100.00
63281;BME280;49406;51.044;3.766;2023-06-24T02:00:34;102525.02;;;15.77;100.00
63281;BME280;49406;51.044;3.766;2023-06-24T02:03:10;102524.84;;;15.78;100.00
63281;BME280;49406;51.044;3.766;2023-06-24T02:05:45;102525.15;;;15.73;100.00
63281;BME280;49406;51.044;3.766;2023-06-24T02:08:22;102526.45;;;15.64;100.00
63281;BME280;49406;51.044;3.766;2023-06-24T02:10:57;102521.62;;;15.61;100.00
63281;BME280;49406;51.044;3.766;2023-06-24T02:13:33;102515.52;;;15.55;100.00
63281;BME280;49406;51.044;3.766;2023-06-24T02:16:10;102516.54;;;15.53;100.00
63281;BME280;49406;51.044;3.766;2023-06-24T02:18:45;102513.33;;;15.60;100.00
63281;BME280;49406;51.044;3.766;2023-06-24T02:21:20;102517.11;;;15.64;100.00
63281;BME280;49406;51.044;3.766;2023-06-24T02:23:55;102514.46;;;15.65;100.00
63281;BME280;49406;51.044;3.766;2023-06-24T02:26:31;102518.52;;;15.65;100.00
63281;BME280;49406;51.044;3.766;2023-06-24T02:29:05;102520.61;;;15.62;100.00
63281;BME280;49406;51.044;3.766;2023-06-24T02:31:41;102519.86;;;15.61;100.00
63281;BME280;49406;51.044;3.766;2023-06-24T02:34:15;102520.02;;;15.59;100.00
63281;BME280;49406;51.044;3.766;2023-06-24T02:36:50;102518.88;;;15.55;100.00
63281;BME280;49406;51.044;3.766;2023-06-24T02:39:24;102523.92;;;15.51;100.00
63281;BME280;49406;51.044;3.766;2023-06-24T02:41:58;102523.50;;;15.58;100.00
63281;BME280;49406;51.044;3.766;2023-06-24T02:44:33;102521.89;;;15.57;100.00
63281;BME280;49406;51.044;3.766;2023-06-24T02:47:09;102522.20;;;15.55;100.00
63281;BME280;49406;51.044;3.766;2023-06-24T02:49:44;102525.23;;;15.56;100.00
63281;BME280;49406;51.044;3.766;2023-06-24T02:52:20;102522.90;;;15.53;100.00
63281;BME280;49406;51.044;3.766;2023-06-24T02:54:55;102522.52;;;15.51;100.00
63281;BME280;49406;51.044;3.766;2023-06-24T02:57:31;102520.27;;;15.43;100.00
63281;BME280;49406;51.044;3.766;2023-06-24T03:00:08;102519.17;;;15.40;100.00
63281;BME280;49406;51.044;3.766;2023-06-24T03:02:46;102519.98;;;15.35;100.00
63281;BME280;49406;51.044;3.766;2023-06-24T03:05:20;102518.19;;;15.32;100.00
63281;BME280;49406;51.044;3.766;2023-06-24T03:07:56;102519.67;;;15.27;100.00
63281;BME280;49406;51.044;3.766;2023-06-24T03:10:31;102516.96;;;15.32;100.00
63281;BME280;49406;51.044;3.766;2023-06-24T03:13:05;102515.02;;;15.32;100.00
63281;BME280;49406;51.044;3.766;2023-06-24T03:15:40;102514.81;;;15.31;100.00
63281;BME280;49406;51.044;3.766;2023-06-24T03:18:14;102513.17;;;15.28;100.00
63281;BME280;49406;51.044;3.766;2023-06-24T03:20:49;102511.20;;;15.26;100.00
63281;BME280;49406;51.044;3.766;2023-06-24T03:23:25;102510.50;;;15.26;100.00
63281;BME280;49406;51.044;3.766;2023-06-24T03:25:59;102511.64;;;15.30;100.00
63281;BME280;49406;51.044;3.766;2023-06-24T03:28:34;102512.14;;;15.28;100.00
63281;BME280;49406;51.044;3.766;2023-06-24T03:31:08;102514.41;;;15.28;100.00
63281;BME280;49406;51.044;3.766;2023-06-24T03:33:42;102515.75;;;15.24;100.00
63281;BME280;49406;51.044;3.766;2023-06-24T03:36:17;102518.70;;;15.21;100.00
63281;BME280;49406;51.044;3.766;2023-06-24T03:38:53;102516.00;;;15.16;100.00
63281;BME280;49406;51.044;3.766;2023-06-24T03:41:27;102512.23;;;15.12;100.00
63281;BME280;49406;51.044;3.766;2023-06-24T03:44:02;102512.23;;;15.12;100.00
63281;BME280;49406;51.044;3.766;2023-06-24T03:46:36;102519.42;;;15.21;100.00
63281;BME280;49406;51.044;3.766;2023-06-24T03:49:10;102520.34;;;15.25;100.00
63281;BME280;49406;51.044;3.766;2023-06-24T03:51:45;102518.23;;;15.25;100.00
63281;BME280;49406;51.044;3.766;2023-06-24T03:54:19;102523.19;;;15.26;100.00
63281;BME280;49406;51.044;3.766;2023-06-24T03:56:53;102524.05;;;15.26;100.00
63281;BME280;49406;51.044;3.766;2023-06-24T03:59:28;102522.61;;;15.22;100.00
63281;BME280;49406;51.044;3.766;2023-06-24T04:02:02;102522.38;;;15.19;100.00
63281;BME280;49406;51.044;3.766;2023-06-24T04:04:41;102523.96;;;15.19;100.00
63281;BME280;49406;51.044;3.766;2023-06-24T04:07:15;102524.96;;;15.27;100.00
63281;BME280;49406;51.044;3.766;2023-06-24T04:10:00;102522.26;;;15.33;100.00
63281;BME280;49406;51.044;3.766;2023-06-24T04:12:34;102524.91;;;15.34;100.00
63281;BME280;49406;51.044;3.766;2023-06-24T04:15:10;102524.04;;;15.34;100.00
63281;BME280;49406;51.044;3.766;2023-06-24T04:17:44;102523.02;;;15.37;100.00
63281;BME280;49406;51.044;3.766;2023-06-24T04:20:19;102523.60;;;15.42;100.00
63281;BME280;49406;51.044;3.766;2023-06-24T04:22:53;102526.44;;;15.44;100.00
63281;BME280;49406;51.044;3.766;2023-06-24T04:25:28;102531.29;;;15.47;100.00
63281;BME280;49406;51.044;3.766;2023-06-24T04:28:02;102532.22;;;15.51;100.00
63281;BME280;49406;51.044;3.766;2023-06-24T04:30:37;102529.85;;;15.58;100.00
63281;BME280;49406;51.044;3.766;2023-06-24T04:33:12;102533.73;;;15.68;100.00
63281;BME280;49406;51.044;3.766;2023-06-24T04:35:47;102535.54;;;15.72;100.00
63281;BME280;49406;51.044;3.766;2023-06-24T04:38:21;102532.75;;;15.75;100.00
63281;BME280;49406;51.044;3.766;2023-06-24T04:40:56;102536.30;;;15.77;100.00
63281;BME280;49406;51.044;3.766;2023-06-24T04:43:32;102539.15;;;15.78;100.00
63281;BME280;49406;51.044;3.766;2023-06-24T04:46:08;102539.36;;;15.80;100.00
63281;BME280;49406;51.044;3.766;2023-06-24T04:48:43;102541.56;;;15.86;100.00
63281;BME280;49406;51.044;3.766;2023-06-24T04:51:17;102537.80;;;15.96;100.00
63281;BME280;49406;51.044;3.766;2023-06-24T04:53:52;102536.61;;;15.99;100.00
63281;BME280;49406;51.044;3.766;2023-06-24T04:56:29;102532.05;;;16.01;100.00
63281;BME280;49406;51.044;3.766;2023-06-24T04:59:03;102528.86;;;16.00;100.00
63281;BME280;49406;51.044;3.766;2023-06-24T05:01:37;102532.56;;;16.00;100.00
63281;BME280;49406;51.044;3.766;2023-06-24T05:04:12;102533.83;;;16.03;100.00
63281;BME280;49406;51.044;3.766;2023-06-24T05:06:46;102535.80;;;16.06;100.00
63281;BME280;49406;51.044;3.766;2023-06-24T05:09:20;102533.33;;;16.19;100.00
63281;BME280;49406;51.044;3.766;2023-06-24T05:11:55;102532.89;;;16.28;100.00
63281;BME280;49406;51.044;3.766;2023-06-24T05:14:29;102532.08;;;16.33;100.00
63281;BME280;49406;51.044;3.766;2023-06-24T05:17:04;102539.35;;;16.35;100.00
63281;BME280;49406;51.044;3.766;2023-06-24T05:19:39;102542.91;;;16.41;100.00
63281;BME280;49406;51.044;3.766;2023-06-24T05:22:13;102546.73;;;16.48;100.00
63281;BME280;49406;51.044;3.766;2023-06-24T05:24:48;102548.13;;;16.64;100.00
63281;BME280;49406;51.044;3.766;2023-06-24T05:27:22;102547.73;;;16.76;100.00
63281;BME280;49406;51.044;3.766;2023-06-24T05:29:56;102549.79;;;16.86;100.00
63281;BME280;49406;51.044;3.766;2023-06-24T05:32:31;102551.22;;;17.09;100.00
63281;BME280;49406;51.044;3.766;2023-06-24T05:35:06;102547.95;;;17.68;100.00
63281;BME280;49406;51.044;3.766;2023-06-24T05:37:41;102552.37;;;18.46;100.00
63281;BME280;49406;51.044;3.766;2023-06-24T05:40:15;102553.19;;;19.21;99.30
63281;BME280;49406;51.044;3.766;2023-06-24T05:42:50;102555.58;;;19.89;95.25
63281;BME280;49406;51.044;3.766;2023-06-24T05:45:25;102556.65;;;20.36;89.34
63281;BME280;49406;51.044;3.766;2023-06-24T05:47:59;102554.02;;;20.91;88.32
63281;BME280;49406;51.044;3.766;2023-06-24T05:50:33;102552.03;;;21.37;84.39
63281;BME280;49406;51.044;3.766;2023-06-24T05:53:08;102557.52;;;21.75;80.39
63281;BME280;49406;51.044;3.766;2023-06-24T05:55:42;102559.63;;;22.09;80.61
63281;BME280;49406;51.044;3.766;2023-06-24T05:58:16;102561.30;;;22.46;77.80
63281;BME280;49406;51.044;3.766;2023-06-24T06:00:51;102561.83;;;22.70;75.22
63281;BME280;49406;51.044;3.766;2023-06-24T06:03:25;102560.53;;;22.86;72.14
63281;BME280;49406;51.044;3.766;2023-06-24T06:06:00;102557.66;;;22.98;71.60
63281;BME280;49406;51.044;3.766;2023-06-24T06:08:34;102566.07;;;23.19;70.91
63281;BME280;49406;51.044;3.766;2023-06-24T06:11:09;102568.89;;;23.30;69.73
63281;BME280;49406;51.044;3.766;2023-06-24T06:13:43;102568.28;;;23.45;70.18
63281;BME280;49406;51.044;3.766;2023-06-24T06:16:17;102565.10;;;23.73;69.86
63281;BME280;49406;51.044;3.766;2023-06-24T06:18:52;102565.10;;;24.00;69.18
63281;BME280;49406;51.044;3.766;2023-06-24T06:21:26;102566.69;;;24.17;67.12
63281;BME280;49406;51.044;3.766;2023-06-24T06:24:01;102570.77;;;24.28;66.41
63281;BME280;49406;51.044;3.766;2023-06-24T06:26:37;102579.73;;;24.37;65.30
63281;BME280;49406;51.044;3.766;2023-06-24T06:29:14;102580.43;;;24.45;65.57
63281;BME280;49406;51.044;3.766;2023-06-24T06:31:48;102579.63;;;24.57;64.75
63281;BME280;49406;51.044;3.766;2023-06-24T06:34:23;102575.77;;;24.69;64.42
63281;BME280;49406;51.044;3.766;2023-06-24T06:36:57;102578.75;;;24.72;63.63
63281;BME280;49406;51.044;3.766;2023-06-24T06:39:31;102580.33;;;24.96;63.30
63281;BME280;49406;51.044;3.766;2023-06-24T06:42:07;102578.52;;;24.89;61.95
63281;BME280;49406;51.044;3.766;2023-06-24T06:44:41;102580.55;;;24.71;63.22
63281;BME280;49406;51.044;3.766;2023-06-24T06:47:15;102577.55;;;24.77;63.22
63281;BME280;49406;51.044;3.766;2023-06-24T06:49:50;102575.26;;;24.98;63.54
63281;BME280;49406;51.044;3.766;2023-06-24T06:52:24;102574.93;;;25.26;63.49
63281;BME280;49406;51.044;3.766;2023-06-24T06:54:59;102570.42;;;25.47;61.56
63281;BME280;49406;51.044;3.766;2023-06-24T06:57:33;102574.09;;;25.65;61.24
63281;BME280;49406;51.044;3.766;2023-06-24T07:00:09;102575.60;;;25.69;59.97
63281;BME280;49406;51.044;3.766;2023-06-24T07:02:44;102577.30;;;25.85;60.50
63281;BME280;49406;51.044;3.766;2023-06-24T07:05:18;102576.27;;;25.96;59.41
63281;BME280;49406;51.044;3.766;2023-06-24T07:07:51;102578.20;;;26.04;58.36
63281;BME280;49406;51.044;3.766;2023-06-24T07:10:26;102578.86;;;25.93;58.35
63281;BME280;49406;51.044;3.766;2023-06-24T07:13:01;102573.54;;;25.91;59.57
63281;BME280;49406;51.044;3.766;2023-06-24T07:15:36;102573.39;;;26.03;59.13
63281;BME280;49406;51.044;3.766;2023-06-24T07:18:10;102573.30;;;26.06;58.99
63281;BME280;49406;51.044;3.766;2023-06-24T07:20:45;102576.15;;;26.13;59.08
63281;BME280;49406;51.044;3.766;2023-06-24T07:23:19;102576.02;;;26.35;58.95
63281;BME280;49406;51.044;3.766;2023-06-24T07:25:53;102571.66;;;26.67;58.18
63281;BME280;49406;51.044;3.766;2023-06-24T07:28:28;102570.67;;;26.97;57.05
63281;BME280;49406;51.044;3.766;2023-06-24T07:31:02;102574.96;;;27.14;56.25
63281;BME280;49406;51.044;3.766;2023-06-24T07:33:37;102571.23;;;27.23;55.80
63281;BME280;49406;51.044;3.766;2023-06-24T07:36:11;102567.69;;;27.32;54.86
63281;BME280;49406;51.044;3.766;2023-06-24T07:38:46;102568.95;;;27.47;55.67
63281;BME280;49406;51.044;3.766;2023-06-24T07:41:20;102573.77;;;27.53;54.70
63281;BME280;49406;51.044;3.766;2023-06-24T07:43:55;102574.50;;;27.68;55.12
63281;BME280;49406;51.044;3.766;2023-06-24T07:46:29;102579.33;;;27.84;54.93
63281;BME280;49406;51.044;3.766;2023-06-24T07:49:04;102576.80;;;28.04;53.52
63281;BME280;49406;51.044;3.766;2023-06-24T07:51:38;102577.66;;;28.14;52.90
63281;BME280;49406;51.044;3.766;2023-06-24T07:54:13;102576.16;;;28.26;52.60
63281;BME280;49406;51.044;3.766;2023-06-24T07:56:47;102579.62;;;28.29;51.30
63281;BME280;49406;51.044;3.766;2023-06-24T07:59:21;102571.77;;;28.17;51.74
63281;BME280;49406;51.044;3.766;2023-06-24T08:01:56;102572.82;;;28.18;52.38
63281;BME280;49406;51.044;3.766;2023-06-24T08:04:30;102578.06;;;28.37;52.22
63281;BME280;49406;51.044;3.766;2023-06-24T08:07:05;102578.60;;;28.60;51.10
63281;BME280;49406;51.044;3.766;2023-06-24T08:09:40;102577.77;;;28.71;50.54
63281;BME280;49406;51.044;3.766;2023-06-24T08:12:14;102579.36;;;28.50;50.27
63281;BME280;49406;51.044;3.766;2023-06-24T08:14:49;102578.97;;;28.55;50.80
63281;BME280;49406;51.044;3.766;2023-06-24T08:17:23;102584.13;;;28.66;50.90
63281;BME280;49406;51.044;3.766;2023-06-24T08:19:57;102578.88;;;28.71;50.62
63281;BME280;49406;51.044;3.766;2023-06-24T08:22:32;102579.86;;;28.96;50.82
63281;BME280;49406;51.044;3.766;2023-06-24T08:25:07;102569.30;;;29.24;49.90
63281;BME280;49406;51.044;3.766;2023-06-24T08:27:41;102562.17;;;29.34;50.22
63281;BME280;49406;51.044;3.766;2023-06-24T08:30:19;102555.64;;;29.44;48.89
63281;BME280;49406;51.044;3.766;2023-06-24T08:32:53;102554.93;;;29.48;48.73
63281;BME280;49406;51.044;3.766;2023-06-24T08:35:28;102549.65;;;29.41;48.05
63281;BME280;49406;51.044;3.766;2023-06-24T08:38:02;102550.11;;;29.43;48.40
63281;BME280;49406;51.044;3.766;2023-06-24T08:40:37;102546.84;;;29.59;47.54
63281;BME280;49406;51.044;3.766;2023-06-24T08:43:13;102542.00;;;29.51;48.55
63281;BME280;49406;51.044;3.766;2023-06-24T08:45:48;102544.17;;;29.63;46.92
63281;BME280;49406;51.044;3.766;2023-06-24T08:48:22;102540.55;;;29.72;46.31
63281;BME280;49406;51.044;3.766;2023-06-24T08:50:58;102544.98;;;29.77;45.72
63281;BME280;49406;51.044;3.766;2023-06-24T08:53:33;102544.01;;;29.79;46.69
63281;BME280;49406;51.044;3.766;2023-06-24T08:56:07;102545.71;;;29.92;44.90
63281;BME280;49406;51.044;3.766;2023-06-24T08:58:43;102546.24;;;29.89;45.43
63281;BME280;49406;51.044;3.766;2023-06-24T09:01:16;102550.56;;;30.01;45.85
63281;BME280;49406;51.044;3.766;2023-06-24T09:03:51;102548.81;;;30.11;46.46
63281;BME280;49406;51.044;3.766;2023-06-24T09:06:25;102551.83;;;30.32;46.67
63281;BME280;49406;51.044;3.766;2023-06-24T09:09:00;102549.90;;;30.38;45.22
63281;BME280;49406;51.044;3.766;2023-06-24T09:11:34;102552.80;;;30.23;45.93
63281;BME280;49406;51.044;3.766;2023-06-24T09:14:13;102550.09;;;30.26;46.52
63281;BME280;49406;51.044;3.766;2023-06-24T09:16:54;102551.54;;;30.49;45.71
63281;BME280;49406;51.044;3.766;2023-06-24T09:19:30;102544.51;;;30.74;45.15
63281;BME280;49406;51.044;3.766;2023-06-24T09:22:05;102544.25;;;30.95;44.18
63281;BME280;49406;51.044;3.766;2023-06-24T09:24:39;102545.23;;;31.00;43.85
63281;BME280;49406;51.044;3.766;2023-06-24T09:27:14;102542.56;;;31.17;43.08
63281;BME280;49406;51.044;3.766;2023-06-24T09:29:49;102538.91;;;31.17;42.09
63281;BME280;49406;51.044;3.766;2023-06-24T09:32:28;102535.83;;;31.00;42.45
63281;BME280;49406;51.044;3.766;2023-06-24T09:35:06;102539.98;;;31.14;42.91
63281;BME280;49406;51.044;3.766;2023-06-24T09:37:41;102541.67;;;31.41;43.05
63281;BME280;49406;51.044;3.766;2023-06-24T09:40:15;102541.14;;;31.51;42.27
63281;BME280;49406;51.044;3.766;2023-06-24T09:42:54;102542.36;;;31.38;41.04
63281;BME280;49406;51.044;3.766;2023-06-24T09:45:29;102541.27;;;31.14;40.25
63281;BME280;49406;51.044;3.766;2023-06-24T09:48:04;102529.86;;;31.03;41.43
63281;BME280;49406;51.044;3.766;2023-06-24T09:50:39;102526.73;;;31.29;42.08
63281;BME280;49406;51.044;3.766;2023-06-24T09:53:13;102526.13;;;31.48;40.96
63281;BME280;49406;51.044;3.766;2023-06-24T09:55:49;102524.46;;;31.38;40.35
63281;BME280;49406;51.044;3.766;2023-06-24T09:58:24;102524.56;;;31.36;40.37
63281;BME280;49406;51.044;3.766;2023-06-24T10:01:02;102521.98;;;31.40;40.55
63281;BME280;49406;51.044;3.766;2023-06-24T10:03:37;102517.23;;;31.45;39.76
63281;BME280;49406;51.044;3.766;2023-06-24T10:06:13;102518.15;;;31.37;39.47
63281;BME280;49406;51.044;3.766;2023-06-24T10:08:47;102519.33;;;31.32;40.19
63281;BME280;49406;51.044;3.766;2023-06-24T10:11:22;102517.45;;;31.34;40.18
63281;BME280;49406;51.044;3.766;2023-06-24T10:13:56;102516.15;;;31.62;39.63
63281;BME280;49406;51.044;3.766;2023-06-24T10:16:31;102516.02;;;31.60;39.63
63281;BME280;49406;51.044;3.766;2023-06-24T10:19:06;102515.33;;;31.80;39.12
63281;BME280;49406;51.044;3.766;2023-06-24T10:21:47;102518.88;;;31.85;38.49
63281;BME280;49406;51.044;3.766;2023-06-24T10:24:31;102518.31;;;31.88;38.39
63281;BME280;49406;51.044;3.766;2023-06-24T10:27:07;102512.52;;;31.95;39.57
63281;BME280;49406;51.044;3.766;2023-06-24T10:29:46;102510.53;;;32.24;37.24
63281;BME280;49406;51.044;3.766;2023-06-24T10:32:23;102502.27;;;32.33;37.26
63281;BME280;49406;51.044;3.766;2023-06-24T10:34:58;102498.14;;;32.25;37.82
63281;BME280;49406;51.044;3.766;2023-06-24T10:37:33;102499.16;;;32.37;38.81
63281;BME280;49406;51.044;3.766;2023-06-24T10:40:09;102494.16;;;32.41;37.30
63281;BME280;49406;51.044;3.766;2023-06-24T10:42:44;102487.09;;;32.36;36.34
63281;BME280;49406;51.044;3.766;2023-06-24T10:45:21;102485.05;;;32.30;34.89
63281;BME280;49406;51.044;3.766;2023-06-24T10:47:56;102481.78;;;32.43;35.42
63281;BME280;49406;51.044;3.766;2023-06-24T10:50:32;102479.81;;;32.54;34.37
63281;BME280;49406;51.044;3.766;2023-06-24T10:53:09;102472.19;;;32.64;35.40
63281;BME280;49406;51.044;3.766;2023-06-24T10:55:45;102467.04;;;32.84;34.18
63281;BME280;49406;51.044;3.766;2023-06-24T10:58:19;102471.00;;;32.87;34.76
63281;BME280;49406;51.044;3.766;2023-06-24T11:01:05;102468.52;;;32.80;34.35
63281;BME280;49406;51.044;3.766;2023-06-24T11:03:41;102468.98;;;32.70;34.71
63281;BME280;49406;51.044;3.766;2023-06-24T11:06:15;102464.19;;;32.61;33.43
63281;BME280;49406;51.044;3.766;2023-06-24T11:08:50;102459.12;;;32.61;34.17
63281;BME280;49406;51.044;3.766;2023-06-24T11:11:24;102455.58;;;32.78;32.43
63281;BME280;49406;51.044;3.766;2023-06-24T11:13:59;102457.13;;;32.68;32.71
63281;BME280;49406;51.044;3.766;2023-06-24T11:16:33;102451.52;;;32.77;32.95
63281;BME280;49406;51.044;3.766;2023-06-24T11:19:10;102450.00;;;32.72;33.17
63281;BME280;49406;51.044;3.766;2023-06-24T11:21:44;102445.98;;;32.69;33.73
63281;BME280;49406;51.044;3.766;2023-06-24T11:24:19;102449.30;;;32.74;33.60
63281;BME280;49406;51.044;3.766;2023-06-24T11:26:53;102453.64;;;32.99;34.46
63281;BME280;49406;51.044;3.766;2023-06-24T11:29:31;102456.23;;;33.13;33.10
63281;BME280;49406;51.044;3.766;2023-06-24T11:32:08;102454.06;;;32.86;32.60
63281;BME280;49406;51.044;3.766;2023-06-24T11:34:43;102451.42;;;32.60;33.42
63281;BME280;49406;51.044;3.766;2023-06-24T11:37:18;102444.73;;;32.69;33.72
63281;BME280;49406;51.044;3.766;2023-06-24T11:40:03;102441.05;;;32.58;33.67
63281;BME280;49406;51.044;3.766;2023-06-24T11:42:40;102447.73;;;32.34;33.77
63281;BME280;49406;51.044;3.766;2023-06-24T11:45:21;102438.60;;;32.60;34.48
63281;BME280;49406;51.044;3.766;2023-06-24T11:48:02;102440.56;;;32.78;34.08
63281;BME280;49406;51.044;3.766;2023-06-24T11:50:41;102438.38;;;32.75;34.30
63281;BME280;49406;51.044;3.766;2023-06-24T11:53:15;102436.73;;;32.88;34.37
63281;BME280;49406;51.044;3.766;2023-06-24T11:55:53;102433.91;;;33.04;34.36
63281;BME280;49406;51.044;3.766;2023-06-24T11:58:33;102433.28;;;33.23;33.54
63281;BME280;49406;51.044;3.766;2023-06-24T12:01:09;102432.13;;;33.18;32.82
63281;BME280;49406;51.044;3.766;2023-06-24T12:03:43;102429.31;;;32.82;32.25
63281;BME280;49406;51.044;3.766;2023-06-24T12:06:18;102422.89;;;32.58;32.75
63281;BME280;49406;51.044;3.766;2023-06-24T12:08:52;102422.05;;;32.64;31.17
63281;BME280;49406;51.044;3.766;2023-06-24T12:11:26;102417.19;;;32.51;29.04
63281;BME280;49406;51.044;3.766;2023-06-24T12:14:01;102419.09;;;32.50;29.03
63281;BME280;49406;51.044;3.766;2023-06-24T12:16:35;102417.23;;;32.39;27.96
63281;BME280;49406;51.044;3.766;2023-06-24T12:19:10;102412.73;;;32.25;29.35
63281;BME280;49406;51.044;3.766;2023-06-24T12:21:44;102406.97;;;32.31;30.23
63281;BME280;49406;51.044;3.766;2023-06-24T12:24:19;102404.73;;;32.63;31.22
63281;BME280;49406;51.044;3.766;2023-06-24T12:26:54;102402.45;;;32.62;31.38
63281;BME280;49406;51.044;3.766;2023-06-24T12:29:29;102403.96;;;32.70;31.55
63281;BME280;49406;51.044;3.766;2023-06-24T12:32:04;102400.85;;;32.76;31.39
63281;BME280;49406;51.044;3.766;2023-06-24T12:34:39;102397.61;;;32.91;29.63
63281;BME280;49406;51.044;3.766;2023-06-24T12:37:13;102398.27;;;32.92;28.02
63281;BME280;49406;51.044;3.766;2023-06-24T12:39:47;102397.14;;;32.81;28.34
63281;BME280;49406;51.044;3.766;2023-06-24T12:42:22;102395.70;;;32.41;28.36
63281;BME280;49406;51.044;3.766;2023-06-24T12:44:56;102391.05;;;32.24;28.87
63281;BME280;49406;51.044;3.766;2023-06-24T12:47:31;102391.66;;;32.30;29.01
63281;BME280;49406;51.044;3.766;2023-06-24T12:50:07;102386.81;;;32.17;30.08
63281;BME280;49406;51.044;3.766;2023-06-24T12:52:42;102390.58;;;31.98;31.94
63281;BME280;49406;51.044;3.766;2023-06-24T12:55:17;102387.75;;;31.97;32.71
63281;BME280;49406;51.044;3.766;2023-06-24T12:57:51;102385.85;;;31.67;33.91
63281;BME280;49406;51.044;3.766;2023-06-24T13:00:25;102384.64;;;31.82;33.87
63281;BME280;49406;51.044;3.766;2023-06-24T13:03:00;102384.84;;;32.04;32.31
63281;BME280;49406;51.044;3.766;2023-06-24T13:05:34;102379.74;;;32.08;31.55
63281;BME280;49406;51.044;3.766;2023-06-24T13:08:09;102374.52;;;32.23;32.30
63281;BME280;49406;51.044;3.766;2023-06-24T13:10:44;102371.52;;;32.34;31.79
63281;BME280;49406;51.044;3.766;2023-06-24T13:13:18;102370.00;;;32.16;30.95
63281;BME280;49406;51.044;3.766;2023-06-24T13:15:52;102365.73;;;32.15;31.51
63281;BME280;49406;51.044;3.766;2023-06-24T13:18:27;102365.58;;;32.33;32.65
63281;BME280;49406;51.044;3.766;2023-06-24T13:21:01;102366.36;;;32.50;31.58
63281;BME280;49406;51.044;3.766;2023-06-24T13:23:36;102364.84;;;32.73;31.27
63281;BME280;49406;51.044;3.766;2023-06-24T13:26:11;102362.68;;;32.90;30.97
63281;BME280;49406;51.044;3.766;2023-06-24T13:28:46;102364.27;;;32.91;29.87
63281;BME280;49406;51.044;3.766;2023-06-24T13:31:22;102359.31;;;32.83;30.11
63281;BME280;49406;51.044;3.766;2023-06-24T13:33:56;102358.29;;;32.73;30.30